Latest Coastal Weather Observations for Kowanyama

IDQ60701

Issued at 6:42 am EST Monday 29 August 2016 (issued every 10 minutes, with the page automatically refreshed every 10 minutes)

About coastal observations | Map of coastal stations | Coastal observations for QLD | Marine services | Other Formats
Station Details ID: 029038 Name: KOWANYAMA AIRPORT Lat: -15.48 Lon: 141.75 Height: 9.6 m
Data from the previous 72 hours. | See also: Recent months at Kowanyama
Date/Time
EST
Temp
°C
Wind Pressure Rain since
9am
mm
Weather Cloud Vis
km
Sea
Height
m
Swell
Dir  Spd
kts
Gust
kts
hPa Trend Height
m
Period
s
Dir
29/06:30am 19.1 E 5 10 1016.3 - 0.0 - - - - - - -
29/06:00am 19.4 ENE 5 9 1015.9 - 0.0 - - - - - - -
29/05:30am 19.7 ENE 6 9 1015.5 - 0.0 - - - - - - -
29/05:00am 19.9 ENE 5 8 1015.2 - 0.0 - - - - - - -
29/04:30am 20.5 ENE 6 10 1015.0 - 0.0 - - - - - - -
29/04:00am 21.1 ENE 8 12 1015.0 - 0.0 - - - - - - -
29/03:30am 21.9 ENE 9 14 1014.8 - 0.0 - - - - - - -
29/03:00am 22.6 ENE 7 12 1014.8 - 0.0 - - - - - - -
29/02:30am 23.0 NE 5 9 1015.0 - 0.0 - - - - - - -
29/02:00am 23.3 NE 5 9 1015.0 - 0.0 - - - - - - -
29/01:30am 23.5 ENE 4 6 1015.3 - 0.0 - - - - - - -
29/01:00am 23.7 E 4 6 1015.4 - 0.0 - Partly cloudy - - - - -
29/12:30am 24.1 CALM 0 3 1015.2 - 0.0 - Partly cloudy - - - - -
29/12:00am 24.1 ESE 4 6 1015.2 - 0.0 - Partly cloudy - - - - -
 
Date/Time
EST
Temp
°C
Wind Pressure Rain since
9am
mm
Weather Cloud Vis
km
Sea
Height
m
Swell
Dir  Spd
kts
Gust
kts
hPa Trend Height
m
Period
s
Dir
28/11:30pm 24.4 ESE 5 6 1015.2 - 0.0 - Cloudy - - - - -
28/11:00pm 23.9 E 4 6 1015.1 - 0.0 - Partly cloudy - - - - -
28/10:30pm 23.9 S 3 5 1014.8 - 0.0 - Partly cloudy - - - - -
28/10:00pm 24.3 S 4 6 1014.8 - 0.0 - Partly cloudy - - - - -
28/09:30pm 24.6 SSW 4 6 1014.9 - 0.0 - Partly cloudy - - - - -
28/09:00pm 25.0 SSW 4 6 1014.8 - 0.0 - Partly cloudy - - - - -
28/08:30pm 25.5 SSW 4 6 1014.5 - 0.0 - Partly cloudy - - - - -
28/08:00pm 26.1 SW 5 7 1014.1 - 0.0 - Cloudy - - - - -
28/07:30pm 26.5 SW 5 6 1013.7 - 0.0 - Partly cloudy - - - - -
28/07:00pm 27.4 SW 6 9 1013.4 - 0.0 - Partly cloudy - - - - -
28/06:30pm 28.9 WSW 6 9 1013.1 - 0.0 - Cloudy - - - - -
28/06:00pm 30.4 SW 6 8 1012.8 - 0.0 - Mostly cloudy - - - - -
28/05:30pm 31.3 SSE 4 8 1012.7 - 0.0 - - - - - - -
28/05:00pm 31.7 ESE 7 16 1012.6 - 0.0 - Partly cloudy - - - - -
28/04:30pm 32.8 SE 4 8 1012.6 - 0.0 - Partly cloudy - - - - -
28/04:00pm 33.0 NNW 4 7 1012.5 - 0.0 - Partly cloudy - - - - -
28/03:30pm 33.0 NE 4 9 1012.5 - 0.0 - - - - - - -
28/03:00pm 33.0 NE 4 7 1012.7 - 0.0 - Partly cloudy - - - - -
28/02:30pm 32.8 ENE 5 9 1013.0 - 0.0 - Partly cloudy - - - - -
28/02:00pm 31.3 E 5 8 1013.6 - 0.0 - Cloudy - - - - -
28/01:30pm 31.1 NE 7 11 1014.2 - 0.0 - Partly cloudy - - - - -
28/01:00pm 31.7 NE 5 11 1015.0 - 0.0 - Partly cloudy - - - - -
28/12:30pm 30.5 NNE 7 12 1015.3 - 0.0 - - - - - - -
28/12:00pm 30.4 NNE 7 11 1016.1 - 0.0 - - - - - - -
28/11:30am 28.9 NE 8 15 1016.7 - 0.0 - - - - - - -
28/11:00am 27.9 ENE 9 14 1017.2 - 0.0 - - - - - - -
28/10:30am 27.7 NE 10 14 1017.7 - 0.0 - - - - - - -
28/10:00am 26.4 NE 9 17 1018.0 - 0.0 - - - - - - -
28/09:30am 25.2 ENE 10 17 1018.1 - 0.0 - - - - - - -
28/09:00am 24.4 NE 10 16 1018.0 - 0.0 - - - - - - -
28/08:30am 23.4 ENE 8 16 1018.0 - 0.0 - - - - - - -
28/08:00am 22.3 ENE 6 10 1017.7 - 0.0 - - - - - - -
28/07:30am 21.3 ENE 7 11 1017.4 - 0.0 - - - - - - -
28/07:00am 20.4 ENE 6 9 1016.9 - 0.0 - - - - - - -
28/06:30am 19.8 ENE 4 7 1016.6 - 0.0 - - - - - - -
28/06:00am 19.6 ENE 5 8 1016.0 - 0.0 - - - - - - -
28/05:30am 19.4 ENE 5 7 1015.7 - 0.0 - Cloudy - - - - -
28/05:00am 17.5 ENE 2 3 1015.5 - 0.0 - Partly cloudy - - - - -
28/04:30am 17.8 ENE 4 5 1015.2 - 0.0 - Partly cloudy - - - - -
28/04:00am 17.9 CALM 0 0 1015.1 - 0.0 - Cloudy - - - - -
28/03:30am 16.7 CALM 0 0 1014.9 - 0.0 - Partly cloudy - - - - -
28/03:00am 16.8 CALM 0 0 1015.1 - 0.0 - - - - - - -
28/02:30am 17.3 CALM 0 0 1015.1 - 0.0 - - - - - - -
28/02:00am 17.3 CALM 0 0 1015.2 - 0.0 - - - - - - -
28/01:30am 17.7 N 2 4 1015.6 - 0.0 - - - - - - -
28/01:00am 18.4 NNE 4 7 1016.0 - 0.0 - - - - - - -
28/12:30am 18.8 N 1 4 1015.8 - 0.0 - Partly cloudy - - - - -
28/12:00am 19.3 NE 6 8 1016.1 - 0.0 - Mostly clear - - - - -
 
Date/Time
EST
Temp
°C
Wind Pressure Rain since
9am
mm
Weather Cloud Vis
km
Sea
Height
m
Swell
Dir  Spd
kts
Gust
kts
hPa Trend Height
m
Period
s
Dir
27/11:30pm 19.2 ESE 4 5 1016.0 - 0.0 - Partly cloudy - - - - -
27/11:00pm 19.8 SSE 2 4 1015.9 - 0.0 - Partly cloudy - - - - -
27/10:30pm 20.6 S 4 5 1015.6 - 0.0 - Partly cloudy - - - - -
27/10:00pm 21.0 SSW 5 7 1015.5 - 0.0 - - - - - - -
27/09:30pm 21.4 SSW 7 10 1015.3 - 0.0 - - - - - - -
27/09:00pm 21.6 SSW 7 11 1015.2 - 0.0 - - - - - - -
27/08:30pm 21.5 SW 5 7 1015.2 - 0.0 - - - - - - -
27/08:00pm 22.1 SW 5 6 1015.0 - 0.0 - - - - - - -
27/07:30pm 22.9 WSW 5 8 1014.8 - 0.0 - - - - - - -
27/07:00pm 24.1 WSW 6 8 1014.3 - 0.0 - - - - - - -
27/06:30pm 25.1 WSW 7 10 1014.0 - 0.0 - - - - - - -
27/06:00pm 26.8 WSW 9 11 1014.0 - 0.0 - - - - - - -
27/05:30pm 28.0 WSW 9 12 1013.8 - 0.0 - - - - - - -
27/05:00pm 29.0 WSW 10 15 1013.5 - 0.0 - - - - - - -
27/04:30pm 29.2 WSW 11 15 1013.3 - 0.0 - - - - - - -
27/04:00pm 30.4 WSW 11 15 1013.0 - 0.0 - - - - - - -
27/03:30pm 31.4 S 6 9 1013.0 - 0.0 - - - - - - -
27/03:00pm 31.3 SSW 6 10 1013.2 - 0.0 - - - - - - -
27/02:30pm 31.1 NNW 4 6 1013.7 - 0.0 - - - - - - -
27/02:00pm 30.9 N 5 8 1014.1 - 0.0 - - - - - - -
27/01:30pm 30.7 W 4 7 1014.7 - 0.0 - - - - - - -
27/01:00pm 29.3 SW 3 5 1015.2 - 0.0 - - - - - - -
27/12:30pm 29.2 NE 4 6 1015.7 - 0.0 - - - - - - -
27/12:00pm 27.8 N 5 9 1016.0 - 0.0 - - - - - - -
27/11:30am 27.0 E 6 9 1016.4 - 0.0 - - - - - - -
27/11:00am 26.1 ESE 5 11 1016.9 - 0.0 - - - - - - -
27/10:30am 24.6 ESE 5 8 1017.2 - 0.0 - - - - - - -
27/10:00am 23.3 ESE 7 9 1017.6 - 0.0 - - - - - - -
27/09:30am 21.5 SE 8 11 1017.8 - 0.0 - - - - - - -
27/09:00am 19.7 SE 8 10 1017.8 - 0.0 - - - - - - -
27/08:30am 18.2 SE 9 13 1017.6 - 0.0 - - - - - - -
27/08:00am 16.8 SE 7 9 1017.7 - 0.0 - - - - - - -
27/07:30am 14.8 S 5 7 1017.6 - 0.0 - - - - - - -
27/07:00am 13.3 SE 2 4 1017.4 - 0.0 - - - - - - -
27/06:30am 13.9 ESE 4 5 1017.0 - 0.0 - - - - - - -
27/06:00am 14.4 SE 4 5 1016.6 - 0.0 - - - - - - -
27/05:30am 15.4 SSE 7 9 1016.2 - 0.0 - - - - - - -
27/05:00am 15.6 SSE 5 8 1015.9 - 0.0 - - - - - - -
27/04:30am 15.4 S 6 8 1015.6 - 0.0 - - - - - - -
27/04:00am 15.4 S 5 7 1015.7 - 0.0 - - - - - - -
27/03:30am 16.2 S 4 5 1016.0 - 0.0 - - - - - - -
27/03:00am 16.6 S 6 8 1015.8 - 0.0 - - - - - - -
27/02:30am 17.6 S 6 8 1016.0 - 0.0 - - - - - - -
27/02:00am 18.5 SSE 7 12 1016.0 - 0.0 - - - - - - -
27/01:30am 18.8 S 8 10 1016.2 - 0.0 - - - - - - -
27/01:00am 19.3 SSE 7 10 1016.3 - 0.0 - - - - - - -
27/12:30am 19.4 S 6 9 1016.5 - 0.0 - - - - - - -
27/12:00am 19.7 S 7 10 1016.4 - 0.0 - - - - - - -
 
Date/Time
EST
Temp
°C
Wind Pressure Rain since
9am
mm
Weather Cloud Vis
km
Sea
Height
m
Swell
Dir  Spd
kts
Gust
kts
hPa Trend Height
m
Period
s
Dir
26/11:30pm 20.6 S 10 14 1016.2 - 0.0 - - - - - - -
26/11:00pm 20.3 S 8 12 1016.3 - 0.0 - - - - - - -
26/10:30pm 19.6 S 6 8 1016.4 - 0.0 - - - - - - -
26/10:00pm 19.9 SSW 5 7 1016.1 - 0.0 - - - - - - -
26/09:30pm 20.3 SSW 5 6 1016.0 - 0.0 - - - - - - -
26/09:00pm 21.0 SW 4 5 1015.9 - 0.0 - - - - - - -
26/08:30pm 21.9 SW 5 7 1015.6 - 0.0 - - - - - - -
26/08:00pm 22.6 SW 5 7 1015.2 - 0.0 - - - - - - -
26/07:30pm 23.5 WSW 7 10 1014.5 - 0.0 - - - - - - -
26/07:00pm 25.4 WSW 5 7 1014.2 - 0.0 - Partly cloudy - - - - -
26/06:30pm 26.6 SW 5 7 1013.6 - 0.0 - Partly cloudy - - - - -
26/06:00pm 28.2 SW 7 9 1013.3 - 0.0 - - - - - - -
26/05:30pm 29.1 SSW 8 11 1012.9 - 0.0 - - - - - - -
26/05:00pm 29.4 S 10 14 1012.7 - 0.0 - - - - - - -
26/04:30pm 30.0 SSW 9 15 1012.7 - 0.0 - - - - - - -
26/04:00pm 30.2 SSW 9 12 1012.6 - 0.0 - - - - - - -
26/03:30pm 30.7 S 8 15 1012.7 - 0.0 - - - - - - -
26/03:00pm 29.3 SSW 11 17 1013.1 - 0.0 - - - - - - -
26/02:30pm 30.1 SSW 10 18 1013.3 - 0.0 - - - - - - -
26/02:00pm 29.8 SSW 11 17 1013.7 - 0.0 - - - - - - -
26/01:30pm 29.2 S 11 15 1014.1 - 0.0 - - - - - - -
26/01:00pm 28.7 S 10 16 1014.8 - 0.0 - - - - - - -
26/12:30pm 28.5 SSE 9 16 1015.3 - 0.0 - - - - - - -
26/12:00pm 27.2 SE 11 16 1015.8 - 0.0 - Mostly clear - - - - -
26/11:30am 26.9 SSE 12 18 1016.2 - 0.0 - - - - - - -
26/11:00am 25.8 SSE 13 17 1016.6 - 0.0 - - - - - - -
26/10:30am 25.4 SSE 13 18 1016.8 - 0.0 - - - - - - -
26/10:00am 24.5 SSE 11 16 1017.1 - 0.0 - - - - - - -
26/09:30am 23.7 SSE 13 18 1017.1 - 0.0 - - - - - - -
26/09:00am 22.6 SSE 12 16 1017.2 - 0.0 - Mostly clear - - - - -
26/08:30am 22.1 SSE 12 20 1017.1 - 0.0 - Partly cloudy - - - - -
26/08:00am 21.3 SSE 8 11 1016.7 - 0.0 - Partly cloudy - - - - -
26/07:30am 20.1 SSE 4 6 1016.3 - 0.0 - Partly cloudy - - - - -
26/07:00am 19.6 S 5 6 1015.9 - 0.0 - - - - - - -

Other Formats:

Comma delimited format used in spreadsheet applications
http://www.bom.gov.au/fwo/IDQ60701/IDQ60701.94268.axf

JavaScript Object Notation format (JSON) in row-major order
http://www.bom.gov.au/fwo/IDQ60701/IDQ60701.94268.json